Time;durP1;ratioP1;P1;durP2;ratioP2;P2;SDS_P1;SDS_P2;PMS_P1;PMS_P2;Temp;Humidity;BMP_temperature;BMP_pressure;BME280_temperature;BME280_humidity;BME280_pressure;Samples;Min_cycle;Max_cycle;Signal;HPM_P1;HPM_P2
2021/05/02 00:00:22;;;;;;;12.07;9.50;;;;;;;;;;5025021;28;20228;-87
2021/05/02 00:03:26;;;;;;;12.47;10.07;;;;;;;;;;5014254;28;20526;-87
2021/05/02 00:06:31;;;;;;;10.50;9.40;;;;;;;;;;5024878;28;20197;-87
2021/05/02 00:09:35;;;;;;;11.10;9.10;;;;;;;;;;4985540;28;20573;-87
2021/05/02 00:12:40;;;;;;;10.73;8.73;;;;;;;;;;5026041;28;20204;-87
2021/05/02 00:15:44;;;;;;;10.13;8.80;;;;;;;;;;5004656;28;20189;-87
2021/05/02 00:18:49;;;;;;;10.30;9.17;;;;;;;;;;5006200;28;20205;-87
2021/05/02 00:21:54;;;;;;;10.23;8.77;;;;;;;;;;5013422;28;20176;-87
2021/05/02 00:24:58;;;;;;;9.80;8.50;;;;;;;;;;5013410;28;20177;-87
2021/05/02 00:28:07;;;;;;;10.40;8.83;;;;;;;;;;5024751;28;20181;-87
2021/05/02 00:31:12;;;;;;;9.77;8.77;;;;;;;;;;5031151;28;20189;-87
2021/05/02 00:34:16;;;;;;;10.20;9.03;;;;;;;;;;5031977;28;20197;-87
2021/05/02 00:37:20;;;;;;;9.63;8.43;;;;;;;;;;5014291;28;20196;-87
2021/05/02 00:40:39;;;;;;;9.60;8.23;;;;;;;;;;4985802;28;20229;-87
2021/05/02 00:43:58;;;;;;;9.80;8.77;;;;;;;;;;5006114;28;20196;-87
2021/05/02 00:47:33;;;;;;;10.83;8.97;;;;;;;;;;5003271;28;20197;-87
2021/05/02 00:50:51;;;;;;;9.77;8.77;;;;;;;;;;5007484;28;20568;-88
2021/05/02 00:54:05;;;;;;;11.00;8.77;;;;;;;;;;5003970;28;20205;-87
2021/05/02 00:57:21;;;;;;;10.17;8.90;;;;;;;;;;4995165;28;20185;-86
2021/05/02 01:00:29;;;;;;;10.13;8.93;;;;;;;;;;5003746;28;20225;-87
2021/05/02 01:03:34;;;;;;;11.67;10.43;;;;;;;;;;5011616;28;20193;-87
2021/05/02 01:06:40;;;;;;;11.50;10.20;;;;;;;;;;5035069;28;20177;-87
2021/05/02 01:09:44;;;;;;;12.17;9.53;;;;;;;;;;5008908;28;20745;-87
2021/05/02 01:12:51;;;;;;;11.30;9.40;;;;;;;;;;5006517;28;20201;-87
2021/05/02 01:15:59;;;;;;;10.73;9.63;;;;;;;;;;5018702;28;20530;-87
2021/05/02 01:19:07;;;;;;;10.93;9.83;;;;;;;;;;5003279;28;20228;-87
2021/05/02 01:22:15;;;;;;;11.90;10.60;;;;;;;;;;5018919;28;20640;-87
2021/05/02 01:25:21;;;;;;;10.67;9.37;;;;;;;;;;5006817;28;20173;-87
2021/05/02 01:28:27;;;;;;;11.83;9.60;;;;;;;;;;5006583;28;20518;-87
2021/05/02 01:31:33;;;;;;;11.33;9.47;;;;;;;;;;4986729;28;20182;-87
2021/05/02 01:34:37;;;;;;;11.17;9.60;;;;;;;;;;5020948;28;20205;-87
2021/05/02 01:37:41;;;;;;;13.27;8.70;;;;;;;;;;5010498;28;20202;-88
2021/05/02 01:40:45;;;;;;;11.37;8.90;;;;;;;;;;5005942;28;20233;-87
2021/05/02 01:43:49;;;;;;;10.27;8.20;;;;;;;;;;5025326;28;20196;-87
2021/05/02 01:46:55;;;;;;;13.00;9.00;;;;;;;;;;5016982;28;20185;-87
2021/05/02 01:50:03;;;;;;;9.80;8.30;;;;;;;;;;5006102;28;20209;-87
2021/05/02 01:53:14;;;;;;;9.80;8.17;;;;;;;;;;5017112;28;20194;-87
2021/05/02 01:56:19;;;;;;;10.53;8.57;;;;;;;;;;5006063;28;20632;-87
2021/05/02 01:59:24;;;;;;;9.30;7.90;;;;;;;;;;5006364;28;20576;-87
2021/05/02 02:02:30;;;;;;;8.47;7.53;;;;;;;;;;4994654;28;20202;-87
2021/05/02 02:05:38;;;;;;;9.57;8.40;;;;;;;;;;5006297;28;20230;-87
2021/05/02 02:08:43;;;;;;;10.23;8.47;;;;;;;;;;4985870;28;20178;-87
2021/05/02 02:11:50;;;;;;;10.37;8.60;;;;;;;;;;4998255;28;20201;-87
2021/05/02 02:14:54;;;;;;;10.33;7.77;;;;;;;;;;5013836;28;20193;-87
2021/05/02 02:17:59;;;;;;;9.10;7.10;;;;;;;;;;5025408;28;20535;-87
2021/05/02 02:21:07;;;;;;;8.40;7.07;;;;;;;;;;5024919;28;20205;-87
2021/05/02 02:24:12;;;;;;;9.40;8.00;;;;;;;;;;5036380;28;20632;-87
2021/05/02 02:27:18;;;;;;;7.87;7.00;;;;;;;;;;5024653;28;20549;-87
2021/05/02 02:30:25;;;;;;;8.57;6.87;;;;;;;;;;4996761;28;20696;-87
2021/05/02 02:33:30;;;;;;;8.57;7.70;;;;;;;;;;4985886;28;20180;-87
2021/05/02 02:36:35;;;;;;;9.33;7.87;;;;;;;;;;5024790;28;20200;-87
2021/05/02 02:39:49;;;;;;;9.17;7.33;;;;;;;;;;5024877;28;20228;-87
2021/05/02 02:42:53;;;;;;;7.80;6.70;;;;;;;;;;4994055;28;20189;-87
2021/05/02 02:46:00;;;;;;;8.27;6.67;;;;;;;;;;5004838;28;20181;-87
2021/05/02 02:49:05;;;;;;;7.73;6.27;;;;;;;;;;5016975;28;20688;-87
2021/05/02 02:52:09;;;;;;;7.37;5.87;;;;;;;;;;5004447;28;20186;-87
2021/05/02 02:55:17;;;;;;;7.23;5.70;;;;;;;;;;5024630;28;20185;-87
2021/05/02 02:58:23;;;;;;;6.33;5.27;;;;;;;;;;5018592;28;20206;-88
2021/05/02 03:01:28;;;;;;;6.20;5.20;;;;;;;;;;5009876;28;20544;-88
2021/05/02 03:04:34;;;;;;;5.97;5.37;;;;;;;;;;5012969;28;20189;-87
2021/05/02 03:07:40;;;;;;;6.33;5.23;;;;;;;;;;5018692;28;20197;-87
2021/05/02 03:10:46;;;;;;;6.83;5.70;;;;;;;;;;5017486;28;20221;-87
2021/05/02 03:13:50;;;;;;;6.77;5.47;;;;;;;;;;5023063;28;20179;-87
2021/05/02 03:16:58;;;;;;;8.63;6.03;;;;;;;;;;5011819;28;20535;-87
2021/05/02 03:20:11;;;;;;;6.07;5.47;;;;;;;;;;5011753;28;20220;-87
2021/05/02 03:23:28;;;;;;;6.77;6.03;;;;;;;;;;5011943;28;20549;-87
2021/05/02 03:26:34;;;;;;;6.40;5.77;;;;;;;;;;5034327;28;20189;-87
2021/05/02 03:29:40;;;;;;;8.20;5.97;;;;;;;;;;5016911;28;20221;-87
2021/05/02 03:32:49;;;;;;;6.60;5.87;;;;;;;;;;5019504;28;20189;-87
2021/05/02 03:35:55;;;;;;;7.87;7.07;;;;;;;;;;5022687;28;20181;-87
2021/05/02 03:39:00;;;;;;;6.53;5.83;;;;;;;;;;5005468;28;20217;-87
2021/05/02 03:42:04;;;;;;;7.93;7.07;;;;;;;;;;5002659;28;20193;-87
2021/05/02 03:45:09;;;;;;;8.03;6.93;;;;;;;;;;5002682;28;20186;-87
2021/05/02 03:48:13;;;;;;;10.23;7.47;;;;;;;;;;5005820;28;20178;-87
2021/05/02 03:51:17;;;;;;;8.73;7.60;;;;;;;;;;4977989;28;20540;-87
2021/05/02 03:54:21;;;;;;;11.00;9.07;;;;;;;;;;5022848;28;20176;-87
2021/05/02 03:57:26;;;;;;;10.73;8.50;;;;;;;;;;5007727;28;20189;-87
2021/05/02 04:00:30;;;;;;;9.57;7.80;;;;;;;;;;5002327;28;20299;-87
2021/05/02 04:03:34;;;;;;;7.47;6.67;;;;;;;;;;5002566;28;20181;-87
2021/05/02 04:06:38;;;;;;;8.13;7.27;;;;;;;;;;5027194;28;20192;-87
2021/05/02 04:09:46;;;;;;;9.67;8.43;;;;;;;;;;5010424;28;20229;-90
2021/05/02 04:12:50;;;;;;;11.17;8.80;;;;;;;;;;5048159;23;20231;-86
2021/05/02 04:15:54;;;;;;;11.20;9.25;;;;;;;;;;5020995;28;20698;-87
2021/05/02 04:19:03;;;;;;;9.90;8.73;;;;;;;;;;5020572;28;20181;-87
2021/05/02 04:22:10;;;;;;;11.63;9.20;;;;;;;;;;5020763;28;20213;-86
2021/05/02 04:25:15;;;;;;;10.43;9.20;;;;;;;;;;5021920;28;20176;-86
2021/05/02 04:28:19;;;;;;;12.30;10.00;;;;;;;;;;5040881;28;20184;-86
2021/05/02 04:31:23;;;;;;;10.13;8.60;;;;;;;;;;5040070;28;20229;-86
2021/05/02 04:34:27;;;;;;;10.17;8.70;;;;;;;;;;5040194;28;20199;-86
2021/05/02 04:37:31;;;;;;;11.40;10.17;;;;;;;;;;5028502;28;20202;-86
2021/05/02 04:40:35;;;;;;;11.87;9.67;;;;;;;;;;5040476;28;20208;-87
2021/05/02 04:43:39;;;;;;;11.33;9.30;;;;;;;;;;5040190;28;20743;-85
2021/05/02 04:46:44;;;;;;;11.30;9.47;;;;;;;;;;5029089;28;20524;-86
2021/05/02 04:49:48;;;;;;;10.97;9.70;;;;;;;;;;5029111;28;20970;-85
2021/05/02 04:52:52;;;;;;;12.60;10.80;;;;;;;;;;5040217;28;20212;-85
2021/05/02 04:55:56;;;;;;;12.53;10.87;;;;;;;;;;5031970;28;20186;-86
2021/05/02 04:59:01;;;;;;;13.07;10.57;;;;;;;;;;5043120;28;20548;-85
2021/05/02 05:02:05;;;;;;;11.57;10.03;;;;;;;;;;5008905;28;20216;-86
2021/05/02 05:05:10;;;;;;;11.73;10.13;;;;;;;;;;5042899;28;20184;-85
2021/05/02 05:08:15;;;;;;;11.83;10.13;;;;;;;;;;5008862;28;20181;-86
2021/05/02 05:11:22;;;;;;;11.33;10.13;;;;;;;;;;5044573;28;20232;-86
2021/05/02 05:14:26;;;;;;;13.77;11.10;;;;;;;;;;5039839;28;20180;-85
2021/05/02 05:17:30;;;;;;;13.63;11.13;;;;;;;;;;5033787;28;20188;-86
2021/05/02 05:20:34;;;;;;;20.93;15.50;;;;;;;;;;5031589;28;20224;-86
2021/05/02 05:23:39;;;;;;;12.90;10.50;;;;;;;;;;5038256;28;20197;-86
2021/05/02 05:26:43;;;;;;;13.20;11.17;;;;;;;;;;5031141;28;20635;-86
2021/05/02 05:29:48;;;;;;;13.17;11.10;;;;;;;;;;5019947;28;20173;-85
2021/05/02 05:33:00;;;;;;;12.43;10.17;;;;;;;;;;5041399;28;20228;-84
2021/05/02 05:36:05;;;;;;;11.77;10.50;;;;;;;;;;5028835;28;20528;-85
2021/05/02 05:39:08;;;;;;;12.80;11.50;;;;;;;;;;5027933;28;20180;-86
2021/05/02 05:42:14;;;;;;;12.50;11.20;;;;;;;;;;5028521;28;20224;-85
2021/05/02 05:45:19;;;;;;;11.90;9.80;;;;;;;;;;5028261;28;20176;-86
2021/05/02 05:48:23;;;;;;;10.83;9.03;;;;;;;;;;5039632;28;20184;-86
2021/05/02 05:51:27;;;;;;;11.10;9.40;;;;;;;;;;5027817;28;20212;-86
2021/05/02 05:54:31;;;;;;;10.17;8.83;;;;;;;;;;5039646;28;20200;-87
2021/05/02 05:57:36;;;;;;;8.53;7.63;;;;;;;;;;5043414;28;20172;-85
2021/05/02 06:00:41;;;;;;;8.80;7.90;;;;;;;;;;5022831;28;20216;-87
2021/05/02 06:03:45;;;;;;;9.23;8.27;;;;;;;;;;5022915;28;20200;-86
2021/05/02 06:06:52;;;;;;;8.37;7.40;;;;;;;;;;5041121;28;20196;-86
2021/05/02 06:09:56;;;;;;;9.87;8.87;;;;;;;;;;5042753;28;20180;-86
2021/05/02 06:13:00;;;;;;;8.77;7.80;;;;;;;;;;5042588;28;20215;-86
2021/05/02 06:16:04;;;;;;;11.13;8.87;;;;;;;;;;5053967;28;20192;-85
2021/05/02 06:19:08;;;;;;;10.27;9.13;;;;;;;;;;5054067;28;20196;-86
2021/05/02 06:22:13;;;;;;;10.17;8.70;;;;;;;;;;5042235;28;20223;-85
2021/05/02 06:25:18;;;;;;;8.83;7.93;;;;;;;;;;5042607;28;20650;-84
2021/05/02 06:28:22;;;;;;;8.10;7.30;;;;;;;;;;5065887;28;20180;-86
2021/05/02 06:31:27;;;;;;;10.23;9.00;;;;;;;;;;5033963;28;20212;-86
2021/05/02 06:34:31;;;;;;;9.57;8.17;;;;;;;;;;5023046;28;20655;-85
2021/05/02 06:37:35;;;;;;;8.80;7.90;;;;;;;;;;5020267;28;20184;-87
2021/05/02 06:40:39;;;;;;;12.73;10.40;;;;;;;;;;5053609;28;20311;-86
2021/05/02 06:43:43;;;;;;;18.70;13.60;;;;;;;;;;5033825;28;20271;-87
2021/05/02 06:46:47;;;;;;;11.47;9.67;;;;;;;;;;5022512;28;20176;-85
2021/05/02 06:49:52;;;;;;;12.10;10.37;;;;;;;;;;5021774;28;20188;-87
2021/05/02 06:52:56;;;;;;;11.13;9.50;;;;;;;;;;5021736;28;20216;-85
2021/05/02 06:56:01;;;;;;;8.63;7.60;;;;;;;;;;5044575;28;20177;-85
2021/05/02 06:59:05;;;;;;;11.23;9.60;;;;;;;;;;5021843;28;20177;-86
2021/05/02 07:02:09;;;;;;;8.40;7.23;;;;;;;;;;5038986;28;20224;-86
2021/05/02 07:05:13;;;;;;;10.53;8.83;;;;;;;;;;5052649;28;20180;-86
2021/05/02 07:08:19;;;;;;;10.43;8.93;;;;;;;;;;5052999;28;20176;-85
2021/05/02 07:11:23;;;;;;;9.20;8.30;;;;;;;;;;5036582;28;20228;-85
2021/05/02 07:14:27;;;;;;;9.63;8.10;;;;;;;;;;5050453;28;20854;-86
2021/05/02 07:17:32;;;;;;;11.43;9.00;;;;;;;;;;5063621;28;20184;-84
2021/05/02 07:20:36;;;;;;;8.77;7.87;;;;;;;;;;5052750;28;20168;-85
2021/05/02 07:23:43;;;;;;;10.00;8.17;;;;;;;;;;5052472;28;20184;-86
2021/05/02 07:26:47;;;;;;;9.00;7.87;;;;;;;;;;5052024;28;20177;-86
2021/05/02 07:29:52;;;;;;;9.97;8.20;;;;;;;;;;5041310;28;20184;-86
2021/05/02 07:32:56;;;;;;;10.37;8.77;;;;;;;;;;5052062;28;20220;-86
2021/05/02 07:36:00;;;;;;;11.20;9.33;;;;;;;;;;5052326;28;20184;-86
2021/05/02 07:39:06;;;;;;;13.70;11.20;;;;;;;;;;5040227;28;20180;-86
2021/05/02 07:42:10;;;;;;;12.10;10.60;;;;;;;;;;5052296;28;20231;-85
2021/05/02 07:45:14;;;;;;;12.20;10.87;;;;;;;;;;5040756;28;20176;-88
2021/05/02 07:48:19;;;;;;;12.23;10.90;;;;;;;;;;5051890;28;20185;-86
2021/05/02 07:51:23;;;;;;;17.47;15.40;;;;;;;;;;5020390;28;20560;-87
2021/05/02 07:54:29;;;;;;;15.20;13.17;;;;;;;;;;5029862;28;20280;-87
2021/05/02 07:57:33;;;;;;;14.47;12.83;;;;;;;;;;5040689;28;20176;-86
2021/05/02 08:00:37;;;;;;;16.50;14.27;;;;;;;;;;5040417;28;20547;-85
2021/05/02 08:03:42;;;;;;;16.30;14.60;;;;;;;;;;5042287;28;20638;-86
2021/05/02 08:06:46;;;;;;;16.70;14.57;;;;;;;;;;5030872;28;20180;-86
2021/05/02 08:09:51;;;;;;;17.70;14.23;;;;;;;;;;5041918;28;20255;-86
2021/05/02 08:12:56;;;;;;;15.23;13.37;;;;;;;;;;5041992;28;20219;-86
2021/05/02 08:16:01;;;;;;;16.50;14.17;;;;;;;;;;5030887;28;20180;-86
2021/05/02 08:19:05;;;;;;;16.37;14.30;;;;;;;;;;5052884;28;20658;-86
2021/05/02 08:22:15;;;;;;;15.97;13.93;;;;;;;;;;5042653;28;20587;-86
2021/05/02 08:25:20;;;;;;;15.17;13.00;;;;;;;;;;5042069;28;20184;-86
2021/05/02 08:28:24;;;;;;;15.87;13.47;;;;;;;;;;5041625;28;20196;-86
2021/05/02 08:31:29;;;;;;;15.83;13.93;;;;;;;;;;5030212;28;20215;-86
2021/05/02 08:34:34;;;;;;;16.77;13.77;;;;;;;;;;5042069;28;20180;-88
2021/05/02 08:37:39;;;;;;;14.70;12.60;;;;;;;;;;5030508;28;20181;-87
2021/05/02 08:40:43;;;;;;;14.77;13.27;;;;;;;;;;5053047;28;20556;-86
2021/05/02 08:43:54;;;;;;;21.00;15.47;;;;;;;;;;5030089;28;20627;-87
2021/05/02 08:46:58;;;;;;;17.03;14.73;;;;;;;;;;5029966;28;20192;-86
2021/05/02 08:50:08;;;;;;;15.27;13.67;;;;;;;;;;5041495;28;20188;-87
2021/05/02 08:53:12;;;;;;;19.13;17.00;;;;;;;;;;5041142;28;20212;-86
2021/05/02 08:56:16;;;;;;;50.17;43.67;;;;;;;;;;5041533;28;20180;-87
2021/05/02 08:59:20;;;;;;;71.00;57.17;;;;;;;;;;5040490;28;20188;-86
2021/05/02 09:02:26;;;;;;;24.73;22.03;;;;;;;;;;5040122;28;20216;-87
2021/05/02 09:05:45;;;;;;;41.03;29.27;;;;;;;;;;5029293;28;20181;-87
2021/05/02 09:08:52;;;;;;;24.83;19.07;;;;;;;;;;5051885;28;20181;-87
2021/05/02 09:11:56;;;;;;;28.23;21.57;;;;;;;;;;5040218;28;20686;-88
2021/05/02 09:15:04;;;;;;;20.13;17.70;;;;;;;;;;5040289;28;20639;-87
2021/05/02 09:18:19;;;;;;;16.10;13.87;;;;;;;;;;5029398;28;20524;-86
2021/05/02 09:21:31;;;;;;;14.17;12.67;;;;;;;;;;5014487;28;20287;-87
2021/05/02 09:24:35;;;;;;;17.30;13.37;;;;;;;;;;5032388;28;20189;-86
2021/05/02 09:27:48;;;;;;;14.77;12.40;;;;;;;;;;5024387;28;20188;-87
2021/05/02 09:31:05;;;;;;;13.77;12.27;;;;;;;;;;5042968;28;20200;-87
2021/05/02 09:34:15;;;;;;;19.67;15.17;;;;;;;;;;5032994;28;20168;-87
2021/05/02 09:37:30;;;;;;;19.80;14.67;;;;;;;;;;5044495;28;20172;-86
2021/05/02 09:40:51;;;;;;;29.03;19.53;;;;;;;;;;5056124;28;20184;-86
2021/05/02 09:43:56;;;;;;;25.23;19.07;;;;;;;;;;5043984;28;20176;-87
2021/05/02 09:47:30;;;;;;;14.90;12.63;;;;;;;;;;5043967;28;20181;-87
2021/05/02 09:50:35;;;;;;;13.37;11.97;;;;;;;;;;5030284;28;20180;-87
2021/05/02 09:53:40;;;;;;;14.03;12.70;;;;;;;;;;5035278;28;20177;-86
2021/05/02 09:56:46;;;;;;;15.20;13.70;;;;;;;;;;5035722;28;20173;-86
2021/05/02 09:59:51;;;;;;;17.73;14.00;;;;;;;;;;5035613;28;20177;-86
2021/05/02 10:02:56;;;;;;;15.50;13.90;;;;;;;;;;5035569;28;20225;-86
2021/05/02 10:06:03;;;;;;;15.00;13.50;;;;;;;;;;5034646;28;20639;-86
2021/05/02 10:09:07;;;;;;;12.67;11.33;;;;;;;;;;5034917;28;20185;-88
2021/05/02 10:12:13;;;;;;;11.57;10.37;;;;;;;;;;5022720;28;20224;-87
2021/05/02 10:15:19;;;;;;;13.33;11.93;;;;;;;;;;5034789;28;20189;-87
2021/05/02 10:18:24;;;;;;;13.30;11.57;;;;;;;;;;5012368;28;20548;-86
2021/05/02 10:21:28;;;;;;;15.83;12.10;;;;;;;;;;5014382;28;20208;-87
2021/05/02 10:24:33;;;;;;;14.40;12.30;;;;;;;;;;5031753;28;20568;-87
2021/05/02 10:27:46;;;;;;;14.87;13.27;;;;;;;;;;5043039;28;20854;-88
2021/05/02 10:30:52;;;;;;;17.60;13.63;;;;;;;;;;5031656;28;20198;-87
2021/05/02 10:33:56;;;;;;;14.07;12.50;;;;;;;;;;5053640;28;20180;-88
2021/05/02 10:37:25;;;;;;;15.10;13.00;;;;;;;;;;5022412;28;20193;-87
2021/05/02 10:40:31;;;;;;;15.13;13.10;;;;;;;;;;5040786;28;20639;-88
2021/05/02 10:43:35;;;;;;;16.13;13.50;;;;;;;;;;5042247;28;20552;-86
2021/05/02 10:46:42;;;;;;;14.43;12.93;;;;;;;;;;5041825;28;20176;-87
2021/05/02 10:49:50;;;;;;;14.07;12.67;;;;;;;;;;5046238;28;20204;-87
2021/05/02 10:53:10;;;;;;;16.20;13.37;;;;;;;;;;5041615;28;20220;-87
2021/05/02 10:56:15;;;;;;;17.33;15.17;;;;;;;;;;5042689;28;20180;-87
2021/05/02 10:59:24;;;;;;;15.03;13.47;;;;;;;;;;5030976;28;20176;-87
2021/05/02 11:02:45;;;;;;;15.37;13.30;;;;;;;;;;5030229;28;20216;-87
2021/05/02 11:05:49;;;;;;;15.70;13.87;;;;;;;;;;5044564;28;20193;-87
2021/05/02 11:08:59;;;;;;;15.60;13.90;;;;;;;;;;5021335;28;20200;-87
2021/05/02 11:12:26;;;;;;;15.30;13.40;;;;;;;;;;5044090;28;20590;-86
2021/05/02 11:15:31;;;;;;;14.40;12.83;;;;;;;;;;5021381;28;20264;-86
2021/05/02 11:18:51;;;;;;;15.17;12.30;;;;;;;;;;5022740;28;20204;-87
2021/05/02 11:21:56;;;;;;;16.33;14.00;;;;;;;;;;5024254;28;20228;-86
2021/05/02 11:25:01;;;;;;;13.60;12.20;;;;;;;;;;5054674;28;20183;-87
2021/05/02 11:28:10;;;;;;;13.23;11.83;;;;;;;;;;5053193;28;20187;-86
2021/05/02 11:31:14;;;;;;;15.43;13.70;;;;;;;;;;5029536;28;20528;-86
2021/05/02 11:34:19;;;;;;;14.97;13.37;;;;;;;;;;5042371;28;20204;-86
2021/05/02 11:37:42;;;;;;;15.67;14.07;;;;;;;;;;5031566;28;20176;-85
2021/05/02 11:40:56;;;;;;;17.87;15.63;;;;;;;;;;5053737;28;20177;-86
2021/05/02 11:44:10;;;;;;;16.47;14.30;;;;;;;;;;5030558;28;20208;-85
2021/05/02 11:47:14;;;;;;;19.17;15.90;;;;;;;;;;5028874;28;20184;-86
2021/05/02 11:50:19;;;;;;;16.70;14.90;;;;;;;;;;5042293;28;20184;-86
2021/05/02 11:53:36;;;;;;;16.27;14.57;;;;;;;;;;5043306;28;20200;-84
2021/05/02 11:56:41;;;;;;;13.70;12.20;;;;;;;;;;5023182;28;20188;-86
2021/05/02 11:59:50;;;;;;;15.67;14.07;;;;;;;;;;5037285;28;20206;-87
2021/05/02 12:02:54;;;;;;;16.43;13.77;;;;;;;;;;5017254;28;20227;-87
2021/05/02 12:05:59;;;;;;;16.50;14.80;;;;;;;;;;5062189;28;20223;-86
2021/05/02 12:09:21;;;;;;;17.00;14.70;;;;;;;;;;5054775;28;20191;-87
2021/05/02 12:12:36;;;;;;;18.40;16.50;;;;;;;;;;5054740;28;20734;-87
2021/05/02 12:15:40;;;;;;;20.23;17.57;;;;;;;;;;5042696;28;20200;-86
2021/05/02 12:18:51;;;;;;;18.60;16.60;;;;;;;;;;5042966;28;20184;-85
2021/05/02 12:21:56;;;;;;;20.37;17.80;;;;;;;;;;5042860;28;20223;-86
2021/05/02 12:25:00;;;;;;;22.50;19.07;;;;;;;;;;5042941;28;20176;-86
2021/05/02 12:28:05;;;;;;;24.30;19.40;;;;;;;;;;5035210;28;20518;-86
2021/05/02 12:31:17;;;;;;;22.60;20.13;;;;;;;;;;5062651;28;20199;-85
2021/05/02 12:34:26;;;;;;;24.33;19.67;;;;;;;;;;5053442;28;20211;-86
2021/05/02 12:37:34;;;;;;;54.87;37.67;;;;;;;;;;5041665;28;20196;-86
2021/05/02 12:40:50;;;;;;;23.50;20.33;;;;;;;;;;5041191;28;20200;-86
2021/05/02 12:43:54;;;;;;;25.93;21.70;;;;;;;;;;5029347;28;20593;-85
2021/05/02 12:47:01;;;;;;;22.87;19.33;;;;;;;;;;5040259;28;20184;-85
2021/05/02 12:50:08;;;;;;;25.17;21.07;;;;;;;;;;5039721;28;20180;-85
2021/05/02 12:53:12;;;;;;;22.30;19.47;;;;;;;;;;5039812;28;20592;-85
2021/05/02 12:56:21;;;;;;;22.80;19.63;;;;;;;;;;5040055;28;20196;-85
2021/05/02 12:59:33;;;;;;;25.90;20.27;;;;;;;;;;5051354;28;20574;-85
2021/05/02 13:02:45;;;;;;;19.50;16.63;;;;;;;;;;5063247;28;20239;-87
2021/05/02 13:06:10;;;;;;;23.10;20.50;;;;;;;;;;5066007;28;20218;-87
2021/05/02 13:09:15;;;;;;;22.57;19.20;;;;;;;;;;5046158;28;20187;-86
2021/05/02 13:12:19;;;;;;;23.60;18.50;;;;;;;;;;5045745;28;20713;-86
2021/05/02 13:15:48;;;;;;;20.23;17.20;;;;;;;;;;5034684;28;20186;-86
2021/05/02 13:18:52;;;;;;;20.57;18.13;;;;;;;;;;5057462;28;20183;-86
2021/05/02 13:22:25;;;;;;;19.10;17.10;;;;;;;;;;5046221;28;20768;-86
2021/05/02 13:25:29;;;;;;;24.07;18.13;;;;;;;;;;5057917;28;20207;-87
2021/05/02 13:28:33;;;;;;;21.37;18.10;;;;;;;;;;5071226;28;20191;-86
2021/05/02 13:31:40;;;;;;;21.17;18.73;;;;;;;;;;5052921;28;20223;-87
2021/05/02 13:34:45;;;;;;;20.50;18.33;;;;;;;;;;5033461;28;20198;-86
2021/05/02 13:37:49;;;;;;;20.47;18.33;;;;;;;;;;5045866;28;20179;-86
2021/05/02 13:40:54;;;;;;;22.00;18.37;;;;;;;;;;5046722;28;20818;-86
2021/05/02 13:44:05;;;;;;;21.10;18.60;;;;;;;;;;5040921;28;20211;-87
2021/05/02 13:47:09;;;;;;;18.97;16.97;;;;;;;;;;5038955;28;20187;-87
2021/05/02 13:50:13;;;;;;;15.80;14.20;;;;;;;;;;5041405;28;20223;-86
2021/05/02 13:53:18;;;;;;;15.73;14.00;;;;;;;;;;5047157;28;20585;-86
2021/05/02 13:56:23;;;;;;;15.87;13.87;;;;;;;;;;5053802;28;20191;-86
2021/05/02 13:59:28;;;;;;;15.27;13.10;;;;;;;;;;5035860;28;20191;-87
2021/05/02 14:02:32;;;;;;;13.63;12.23;;;;;;;;;;5034087;28;20222;-86
2021/05/02 14:05:37;;;;;;;16.00;13.53;;;;;;;;;;5029205;28;20662;-85
2021/05/02 14:08:41;;;;;;;20.17;14.63;;;;;;;;;;5055751;28;20563;-86
2021/05/02 14:11:46;;;;;;;15.70;14.00;;;;;;;;;;5037832;28;20226;-86
2021/05/02 14:14:50;;;;;;;15.33;13.43;;;;;;;;;;5036490;28;20195;-85
2021/05/02 14:17:58;;;;;;;14.77;11.93;;;;;;;;;;5050840;28;20199;-83
2021/05/02 14:21:02;;;;;;;13.17;11.70;;;;;;;;;;5036885;28;20207;-83
2021/05/02 14:24:07;;;;;;;16.00;13.73;;;;;;;;;;5053375;28;20231;-87
2021/05/02 14:27:11;;;;;;;15.60;13.27;;;;;;;;;;5031384;28;20290;-85
2021/05/02 14:30:16;;;;;;;20.43;13.27;;;;;;;;;;5037163;28;20203;-86
2021/05/02 14:34:10;;;;;;;15.37;13.77;;;;;;;;;;5055648;23;20240;-89
2021/05/02 14:38:04;;;;;;;14.07;12.63;;;;;;;;;;5031687;28;20212;-88
2021/05/02 14:41:08;;;;;;;18.93;16.97;;;;;;;;;;5024352;28;20650;-89
2021/05/02 14:44:15;;;;;;;19.40;16.53;;;;;;;;;;5012911;28;20239;-84
2021/05/02 14:47:22;;;;;;;18.87;16.87;;;;;;;;;;5013585;28;20188;-87
2021/05/02 14:50:33;;;;;;;18.00;16.20;;;;;;;;;;5013672;28;20539;-89
2021/05/02 14:54:30;;;;;;;20.47;17.30;;;;;;;;;;5019560;28;20216;-91
2021/05/02 14:57:41;;;;;;;22.83;18.37;;;;;;;;;;5016738;28;20196;-90
2021/05/02 15:00:46;;;;;;;20.03;17.03;;;;;;;;;;5015542;28;20197;-89
2021/05/02 15:03:52;;;;;;;20.67;16.70;;;;;;;;;;5023563;28;20224;-88
2021/05/02 15:12:21;;;;;;;23.67;18.57;;;;;;;;;;5041365;28;20182;-89
2021/05/02 15:15:32;;;;;;;22.17;19.13;;;;;;;;;;5023318;28;20177;-89
2021/05/02 15:18:52;;;;;;;22.50;19.60;;;;;;;;;;5022814;28;20197;-88
2021/05/02 15:22:05;;;;;;;20.47;17.97;;;;;;;;;;5022605;28;20632;-88
2021/05/02 15:25:21;;;;;;;23.13;19.63;;;;;;;;;;5022609;28;20675;-88
2021/05/02 15:38:48;;;;;;;29.20;22.90;;;;;;;;;;5036247;28;20205;-88
2021/05/02 15:42:00;;;;;;;24.37;18.97;;;;;;;;;;5011236;28;20177;-88
2021/05/02 15:45:12;;;;;;;17.50;15.60;;;;;;;;;;5022934;28;20212;-88
2021/05/02 15:48:18;;;;;;;20.60;17.53;;;;;;;;;;5022518;28;20181;-88
2021/05/02 15:51:25;;;;;;;22.20;18.00;;;;;;;;;;5022625;28;20631;-89
2021/05/02 15:54:30;;;;;;;20.93;16.93;;;;;;;;;;5012598;28;20615;-88
2021/05/02 15:58:28;;;;;;;19.43;17.33;;;;;;;;;;5023005;28;20177;-88
2021/05/02 16:01:32;;;;;;;20.97;16.67;;;;;;;;;;5011823;28;20177;-86
2021/05/02 16:04:40;;;;;;;23.00;18.83;;;;;;;;;;5022278;28;20671;-90
2021/05/02 16:08:37;;;;;;;20.37;17.53;;;;;;;;;;5011503;28;20205;-89
2021/05/02 16:13:30;;;;;;;19.23;16.73;;;;;;;;;;4991774;28;20218;-90
2021/05/02 16:31:20;;;;;;;19.90;15.73;;;;;;;;;;5003867;28;20180;-89
2021/05/02 16:34:59;;;;;;;18.87;15.37;;;;;;;;;;5001431;28;20181;-90
2021/05/02 16:38:15;;;;;;;18.23;15.80;;;;;;;;;;5000182;28;20178;-87
2021/05/02 16:42:01;;;;;;;17.83;15.93;;;;;;;;;;4991069;28;20197;-89
2021/05/02 16:45:39;;;;;;;18.63;16.43;;;;;;;;;;4981767;28;20590;-90
2021/05/02 16:48:47;;;;;;;20.83;16.70;;;;;;;;;;4981215;28;20182;-89
2021/05/02 16:52:22;;;;;;;18.73;16.37;;;;;;;;;;5001347;28;20529;-89
2021/05/02 16:55:29;;;;;;;21.60;18.10;;;;;;;;;;5002187;28;20182;-88
2021/05/02 16:58:34;;;;;;;29.17;26.10;;;;;;;;;;4989461;28;20185;-88
2021/05/02 17:01:38;;;;;;;29.37;26.30;;;;;;;;;;5000650;28;20178;-89
2021/05/02 17:04:42;;;;;;;22.63;20.33;;;;;;;;;;5011564;28;20197;-88
2021/05/02 17:07:48;;;;;;;21.63;19.33;;;;;;;;;;5000521;28;20185;-87
2021/05/02 17:10:52;;;;;;;19.23;16.83;;;;;;;;;;5000170;28;20177;-87
2021/05/02 17:13:56;;;;;;;18.77;16.77;;;;;;;;;;5018171;28;20217;-88
2021/05/02 17:17:01;;;;;;;19.47;17.33;;;;;;;;;;5009353;28;20177;-88
2021/05/02 17:20:07;;;;;;;23.80;19.60;;;;;;;;;;5009076;28;20185;-88
2021/05/02 17:23:12;;;;;;;31.33;26.00;;;;;;;;;;5008662;28;20718;-88
2021/05/02 17:26:16;;;;;;;20.33;16.50;;;;;;;;;;5009053;28;20181;-88
2021/05/02 17:29:21;;;;;;;20.53;17.07;;;;;;;;;;4998143;28;20176;-87
2021/05/02 17:32:25;;;;;;;18.27;16.37;;;;;;;;;;5019935;28;20212;-89
2021/05/02 17:35:29;;;;;;;18.77;16.77;;;;;;;;;;5008455;28;20208;-88
2021/05/02 17:38:33;;;;;;;20.13;17.00;;;;;;;;;;5008944;28;20189;-88
2021/05/02 17:41:38;;;;;;;17.97;15.83;;;;;;;;;;5008537;28;20181;-87
2021/05/02 17:44:55;;;;;;;17.33;15.53;;;;;;;;;;5010060;28;20209;-88
2021/05/02 17:47:59;;;;;;;18.60;16.60;;;;;;;;;;5008438;28;20181;-88
2021/05/02 17:51:05;;;;;;;18.53;16.57;;;;;;;;;;5010072;28;20189;-88
2021/05/02 17:54:09;;;;;;;20.20;17.20;;;;;;;;;;5024104;28;20216;-88
2021/05/02 17:57:14;;;;;;;18.30;15.03;;;;;;;;;;5012132;28;20193;-88
2021/05/02 18:00:18;;;;;;;18.03;15.73;;;;;;;;;;4993764;28;20181;-89
2021/05/02 18:03:24;;;;;;;16.50;13.73;;;;;;;;;;5006546;28;20224;-89
2021/05/02 18:06:28;;;;;;;15.07;13.47;;;;;;;;;;5012057;28;20177;-88
2021/05/02 18:09:32;;;;;;;14.83;12.07;;;;;;;;;;5011857;28;20196;-88
2021/05/02 18:12:37;;;;;;;13.20;11.10;;;;;;;;;;5012022;28;20581;-87
2021/05/02 18:15:41;;;;;;;14.57;11.70;;;;;;;;;;5011955;28;20173;-87
2021/05/02 18:18:46;;;;;;;12.33;11.03;;;;;;;;;;5003275;28;20182;-87
2021/05/02 18:21:50;;;;;;;12.93;10.83;;;;;;;;;;5003256;28;20177;-88
2021/05/02 18:24:54;;;;;;;15.63;13.07;;;;;;;;;;5034291;28;20208;-90
2021/05/02 18:28:04;;;;;;;14.63;12.83;;;;;;;;;;5000789;28;20181;-89
2021/05/02 18:31:08;;;;;;;14.37;12.87;;;;;;;;;;5011748;28;20185;-87
2021/05/02 18:34:13;;;;;;;15.27;13.33;;;;;;;;;;5011500;28;20216;-88
2021/05/02 18:37:18;;;;;;;16.53;13.70;;;;;;;;;;5012448;28;20205;-88
2021/05/02 18:40:22;;;;;;;17.90;15.33;;;;;;;;;;5036257;28;20200;-88
2021/05/02 18:43:26;;;;;;;18.83;15.93;;;;;;;;;;5011014;28;20691;-89
2021/05/02 18:46:33;;;;;;;21.17;17.57;;;;;;;;;;5018253;28;20178;-88
2021/05/02 18:49:38;;;;;;;17.90;16.00;;;;;;;;;;5003010;28;20178;-88
2021/05/02 18:52:43;;;;;;;17.63;15.63;;;;;;;;;;4990763;28;20217;-87